Mazar-I-Sharif, Afghanistan

3:18 PM AFT on October 24, 2014 (GMT +0430)
Termez | Change Station
CLOSE
Current Station
Airport
Location: Termez,
Elevation: 1027 ft
Nearby Weather Stations

Elev 1027 ft 37.29 °N, 67.31 °E | Updated 18 minutes ago

Clear
Clear
79 °F
Feels Like 79 °F
N
7
Wind Variable Wind from ESE

Today
High -- | Low -- °F
--% Chance of Precip.
Yesterday
High -- | Low -- °F
Precip. -- in
6:16 AM 5:13 PM
New Moon, 0% visible
Pressure 29.92 in
Visibility -9999.0 miles
Clouds
Dew Point 45 °F
Humidity 30%
Rainfall 0.00 in
Snow Depth Not available.
UV Not available.
Pollen Not available.
Air Quality Not available.
Flu Activity Not available.
METAR UTST 241030Z 11003MPS 070V150 CAVOK 26/07 Q1013 R88/CLRD70 NOSIG

More Conditions Fewer Conditions

Pressure 29.92 in
Visibility -9999.0 miles
Clouds
Dew Point 45 °F
Humidity 30%
Rainfall 0.00 in
Snow Depth Not available.
UV Not available.
Pollen Not available.
Air Quality Not available.
Flu Activity Not available.
METAR UTST 241030Z 11003MPS 070V150 CAVOK 26/07 Q1013 R88/CLRD70 NOSIG

More Conditions Fewer Conditions

10-Day Weather Forecast

Almanac

Astronomy

Oct. 24, 2014 Rise Set
Actual Time 6:16 AM AFT 5:13 PM AFT
Civil Twilight 5:50 AM AFT 5:40 PM AFT
Nautical Twilight 5:19 AM AFT 6:10 PM AFT
Astronomical Twilight 4:49 AM AFT 6:40 PM AFT
Moon 6:29 AM AFT 5:37 PM AFT
Length of Visible Light 11h 49m
Length of Day
10h 57m
Tomorrow will be 2m 10s shorter.
New Moon, 0% of the Moon is Illuminated
Today
New Moon
Oct 30
First Quarter
Nov 6
Full
Nov 14
Last Quarter
Nov 22
New

Yesterday's Extremes

Country Highs Country Lows

Community

WunderPhotos

Upload Photos

1,764,516 photos uploaded!

WunderBlogs® & News

Nearby

Snow Depth

Not available.

Earthquake Activity

City Distance Mag. Time & Date
No recent earthquake activity has been reported nearby.
Minimum magnitude displayed is 2.5.

Coastal Water Temperatures

Place Temperature
No Stations Reporting

Nearby Weather Stations